createdAt,value
2022-12-04T00:03:13.870Z,24.60
2022-12-04T00:11:36.876Z,21.70
2022-12-04T00:19:59.779Z,23.50
2022-12-04T00:28:22.709Z,25.70
2022-12-04T00:36:45.587Z,22.60
2022-12-04T00:45:08.775Z,22.50
2022-12-04T00:53:32.271Z,20.40
2022-12-04T01:01:55.334Z,21.70
2022-12-04T01:10:18.474Z,21.50
2022-12-04T01:18:41.954Z,19.20
2022-12-04T01:27:05.078Z,22.10
2022-12-04T01:35:28.020Z,17.60
2022-12-04T01:44:15.275Z,21.30
2022-12-04T01:52:38.265Z,17.30
2022-12-04T02:01:08.414Z,16.70
2022-12-04T02:09:34.796Z,18.80
2022-12-04T02:18:14.546Z,21.30
2022-12-04T02:26:48.934Z,24.00
2022-12-04T02:35:23.519Z,24.00
2022-12-04T02:43:52.102Z,25.40
2022-12-04T02:52:21.178Z,23.60
2022-12-04T03:00:47.934Z,25.60
2022-12-04T03:09:28.640Z,22.90
2022-12-04T03:18:04.331Z,23.40
2022-12-04T03:26:53.724Z,24.30
2022-12-04T03:35:28.134Z,21.70
2022-12-04T03:43:57.142Z,24.20
2022-12-04T03:52:35.855Z,20.20
2022-12-04T04:01:02.243Z,23.70
2022-12-04T04:09:27.536Z,22.90
2022-12-04T04:18:10.967Z,23.90
2022-12-04T04:26:38.353Z,21.90
2022-12-04T04:35:31.870Z,21.40
2022-12-04T04:44:05.983Z,22.20
2022-12-04T04:52:29.487Z,19.80
2022-12-04T05:00:59.638Z,22.10
2022-12-04T05:09:22.442Z,23.60
2022-12-04T05:17:45.288Z,18.10
2022-12-04T05:26:08.250Z,20.50
2022-12-04T05:34:31.185Z,19.60
2022-12-04T05:42:54.161Z,18.20
2022-12-04T05:51:17.302Z,22.10
2022-12-04T05:59:40.415Z,18.80
2022-12-04T06:08:03.385Z,22.50
2022-12-04T06:16:31.674Z,21.30
2022-12-04T06:24:54.577Z,22.30
2022-12-04T06:33:17.412Z,23.80
2022-12-04T06:41:40.716Z,19.70
2022-12-04T06:50:04.977Z,23.40
2022-12-04T06:58:29.444Z,22.60
2022-12-04T07:06:52.330Z,22.10
2022-12-04T07:15:15.225Z,23.90
2022-12-04T07:23:38.497Z,21.90
2022-12-04T07:32:01.500Z,26.30
2022-12-04T07:40:24.436Z,27.20
2022-12-04T07:48:47.517Z,21.90
2022-12-04T07:57:10.800Z,25.40
2022-12-04T08:05:34.027Z,24.80
2022-12-04T08:13:59.913Z,26.40
2022-12-04T08:22:25.477Z,24.50
2022-12-04T08:30:48.626Z,28.30
2022-12-04T08:39:13.107Z,23.50
2022-12-04T08:47:36.047Z,22.60
2022-12-04T08:56:00.880Z,25.40
2022-12-04T09:04:23.976Z,19.70
2022-12-04T09:12:46.884Z,22.10
2022-12-04T09:21:13.180Z,18.50
2022-12-04T09:29:36.154Z,18.00
2022-12-04T09:37:59.473Z,24.00
2022-12-04T09:46:33.349Z,22.10
2022-12-04T09:54:58.451Z,18.00
2022-12-04T10:03:25.877Z,15.40
2022-12-04T10:11:53.274Z,17.50
2022-12-04T10:20:37.824Z,21.90
2022-12-04T10:29:06.526Z,19.90
2022-12-04T10:37:31.589Z,17.40
2022-12-04T10:45:54.477Z,19.10
2022-12-04T10:54:40.471Z,18.30
2022-12-04T11:03:10.849Z,18.30
2022-12-04T11:11:35.864Z,20.50
2022-12-04T11:20:08.376Z,20.20
2022-12-04T11:28:41.721Z,20.90
2022-12-04T11:37:15.655Z,23.20
2022-12-04T11:45:38.955Z,22.10
2022-12-04T11:55:01.337Z,28.10
2022-12-04T12:03:58.959Z,26.80
2022-12-04T12:13:00.464Z,20.20
2022-12-04T12:21:46.454Z,22.30
2022-12-04T12:30:24.219Z,19.00
2022-12-04T12:38:55.184Z,21.50
2022-12-04T12:47:23.802Z,21.50
2022-12-04T12:55:51.937Z,23.70
2022-12-04T13:04:25.390Z,23.90
2022-12-04T13:12:59.978Z,22.30
2022-12-04T13:21:28.846Z,24.80
2022-12-04T13:30:16.191Z,29.30
2022-12-04T13:39:08.584Z,26.90
2022-12-04T13:47:34.397Z,30.60
2022-12-04T13:56:04.430Z,20.70
2022-12-04T14:04:40.582Z,24.30
2022-12-04T14:13:20.002Z,27.60
2022-12-04T14:21:45.519Z,23.80
2022-12-04T14:30:44.319Z,26.20
2022-12-04T14:39:13.410Z,24.50
2022-12-04T14:47:45.005Z,25.00
2022-12-04T14:56:26.382Z,24.30
2022-12-04T15:04:50.828Z,25.00
2022-12-04T15:13:25.710Z,25.10
2022-12-04T15:21:49.269Z,22.10
2022-12-04T15:30:21.511Z,26.20
2022-12-04T15:38:45.080Z,24.50
2022-12-04T15:47:19.949Z,20.50
2022-12-04T15:55:55.379Z,20.00
2022-12-04T16:04:22.870Z,20.80
2022-12-04T16:12:56.446Z,20.70
2022-12-04T16:21:22.978Z,24.00
2022-12-04T16:29:46.664Z,25.70
2022-12-04T16:38:17.027Z,18.20
2022-12-04T16:46:40.280Z,17.10
2022-12-04T16:55:05.278Z,21.30
2022-12-04T17:03:31.223Z,23.20
2022-12-04T17:11:54.144Z,21.00
2022-12-04T17:20:18.848Z,19.20
2022-12-04T17:28:43.635Z,17.40
2022-12-04T17:37:06.828Z,23.60
2022-12-04T17:45:29.840Z,19.40
2022-12-04T17:53:53.934Z,18.90
2022-12-04T18:02:17.247Z,20.30
2022-12-04T18:10:40.351Z,17.90
2022-12-04T18:19:04.703Z,22.50
2022-12-04T18:27:27.682Z,18.10
2022-12-04T18:35:56.759Z,19.90
2022-12-04T18:44:20.881Z,19.20
2022-12-04T18:52:45.100Z,23.50
2022-12-04T19:01:10.597Z,19.30
2022-12-04T19:10:09.472Z,17.20
2022-12-04T19:18:18.485Z,18.10
2022-12-04T19:26:41.821Z,15.90
2022-12-04T19:35:04.972Z,14.10
2022-12-04T19:43:28.206Z,13.30
2022-12-04T19:51:51.393Z,14.10
2022-12-04T20:00:14.994Z,12.60
2022-12-04T20:08:39.688Z,16.20
2022-12-04T20:17:04.318Z,16.10
2022-12-04T20:25:27.336Z,13.40
2022-12-04T20:33:52.549Z,14.60
2022-12-04T20:42:15.873Z,12.00
2022-12-04T20:50:41.657Z,15.50
2022-12-04T20:59:08.061Z,17.40
2022-12-04T21:07:31.688Z,15.80
2022-12-04T21:16:02.541Z,16.20
2022-12-04T21:24:30.434Z,14.50
2022-12-04T21:32:53.469Z,15.00
2022-12-04T21:41:36.431Z,15.30
2022-12-04T21:50:00.186Z,13.00
2022-12-04T21:58:25.730Z,15.30
2022-12-04T22:06:48.857Z,16.00
2022-12-04T22:15:11.867Z,13.80
2022-12-04T22:23:35.357Z,14.40
2022-12-04T22:31:58.324Z,16.10
2022-12-04T22:40:21.855Z,13.00
2022-12-04T22:48:44.982Z,12.90
2022-12-04T22:57:07.985Z,12.60
2022-12-04T23:05:33.513Z,13.40
2022-12-04T23:14:00.393Z,12.00
2022-12-04T23:22:23.486Z,12.20
2022-12-04T23:30:47.213Z,15.00
2022-12-04T23:39:10.219Z,16.50
2022-12-04T23:47:34.513Z,15.10
2022-12-04T23:56:00.539Z,12.80
